createdAt,value
2022-10-26T00:14:28.603Z,9.2
2022-10-26T00:24:28.593Z,9.3
2022-10-26T00:54:28.648Z,9.4
2022-10-26T01:04:28.674Z,9.4
2022-10-26T01:14:28.691Z,9.4
2022-10-26T01:34:28.743Z,9.5
2022-10-26T01:54:28.840Z,9.5
2022-10-26T02:04:28.769Z,9.5
2022-10-26T02:24:28.833Z,9.6
2022-10-26T02:44:28.872Z,9.8
2022-10-26T02:54:28.870Z,9.9
2022-10-26T03:24:28.935Z,9.9
2022-10-26T03:34:28.933Z,9.9
2022-10-26T03:44:28.969Z,9.8
2022-10-26T04:04:29.126Z,10.1
2022-10-26T04:24:29.054Z,10.2
2022-10-26T04:34:29.055Z,10.1
2022-10-26T04:44:29.252Z,10.1
2022-10-26T04:54:29.096Z,10.1
2022-10-26T05:14:29.155Z,10.1
2022-10-26T05:54:29.207Z,10
2022-10-26T06:14:29.265Z,10
2022-10-26T07:14:29.363Z,10.2
2022-10-26T07:24:29.358Z,10.2
2022-10-26T07:34:29.404Z,10.3
2022-10-26T07:44:29.399Z,10.4
2022-10-26T07:54:29.452Z,10.4
2022-10-26T08:04:29.435Z,10.5
2022-10-26T08:14:29.494Z,10.6
2022-10-26T08:24:29.478Z,11.9
2022-10-26T08:44:29.527Z,12.3
2022-10-26T08:54:29.514Z,11
2022-10-26T09:04:29.565Z,13
2022-10-26T09:14:29.554Z,11
2022-10-26T09:24:29.590Z,13.3
2022-10-26T09:44:29.637Z,11.3
2022-10-26T09:54:29.607Z,11.7
2022-10-26T10:04:29.673Z,11.9
2022-10-26T10:14:29.654Z,12.4
2022-10-26T10:34:29.712Z,12.2
2022-10-26T10:44:29.694Z,12.6
2022-10-26T10:54:29.736Z,12.7
2022-10-26T11:14:29.767Z,13.9
2022-10-26T11:24:29.768Z,15.7
2022-10-26T11:34:29.819Z,16.4
2022-10-26T11:44:29.804Z,13.4
2022-10-26T11:54:29.838Z,13.2
2022-10-26T12:04:29.828Z,14
2022-10-26T12:14:29.871Z,12.6
2022-10-26T12:24:29.848Z,13.5
2022-10-26T12:34:29.902Z,12.4
2022-10-26T12:44:29.869Z,12.5
2022-10-26T12:54:29.927Z,12.5
2022-10-26T13:04:29.898Z,12.6
2022-10-26T13:14:29.940Z,13
2022-10-26T13:24:30.006Z,13.1
2022-10-26T13:34:29.982Z,12.9
2022-10-26T13:44:29.987Z,12.5
2022-10-26T13:54:30.003Z,12.8
2022-10-26T14:04:30.012Z,12.6
2022-10-26T14:14:30.041Z,12.5
2022-10-26T14:24:45.671Z,12.3
2022-10-26T14:34:30.067Z,12.1
2022-10-26T14:44:30.082Z,12.4
2022-10-26T14:54:30.110Z,12.4
2022-10-26T15:04:30.085Z,12.2
2022-10-26T15:14:30.129Z,12.1
2022-10-26T15:24:31.995Z,11.8
2022-10-26T15:34:30.164Z,11.8
2022-10-26T15:44:30.173Z,11.7
2022-10-26T15:54:30.206Z,11.8
2022-10-26T16:04:30.201Z,11.6
2022-10-26T16:14:33.438Z,11.5
2022-10-26T16:24:30.201Z,11.4
2022-10-26T16:34:30.250Z,11.3
2022-10-26T16:54:30.295Z,11.5
2022-10-26T17:04:30.282Z,11.1
2022-10-26T17:14:30.312Z,11.3
2022-10-26T17:24:30.316Z,11.1
2022-10-26T17:34:30.372Z,11.5
2022-10-26T17:44:30.364Z,11.3
2022-10-26T17:54:30.396Z,11.1
2022-10-26T18:04:30.378Z,10.9
2022-10-26T18:24:30.437Z,10.3
2022-10-26T18:34:30.423Z,10.6
2022-10-26T18:44:30.463Z,10.8
2022-10-26T18:54:31.777Z,11.3
2022-10-26T19:04:30.485Z,11.3
2022-10-26T19:14:30.489Z,11
2022-10-26T19:24:30.540Z,11
2022-10-26T19:34:30.535Z,11
2022-10-26T19:54:30.590Z,10.5
2022-10-26T20:04:30.596Z,10.6
2022-10-26T20:14:30.627Z,11
2022-10-26T20:24:30.618Z,10.7
2022-10-26T20:34:30.671Z,10.7
2022-10-26T20:44:30.654Z,10.4
2022-10-26T20:54:30.698Z,10.1
2022-10-26T21:04:30.690Z,10
2022-10-26T21:14:30.726Z,9.9
2022-10-26T21:24:30.818Z,9.9
2022-10-26T21:34:30.787Z,10.1
2022-10-26T21:44:41.095Z,10
2022-10-26T21:54:30.863Z,9.8
2022-10-26T22:04:30.805Z,10.6
2022-10-26T22:14:30.857Z,10.1
2022-10-26T22:24:30.839Z,9.8
2022-10-26T22:44:30.905Z,9.9
2022-10-26T22:54:30.877Z,10.7
2022-10-26T23:04:30.975Z,9.9
2022-10-26T23:14:30.928Z,9.4
2022-10-26T23:24:30.947Z,9.3
2022-10-26T23:34:30.975Z,9.2
2022-10-26T23:44:31.002Z,10.1
2022-10-26T23:54:31.011Z,9.8
